Time;durP1;ratioP1;P1;durP2;ratioP2;P2;SDS_P1;SDS_P2;PMS_P1;PMS_P2;Temp;Humidity;BMP_temperature;BMP_pressure;BME280_temperature;BME280_humidity;BME280_pressure;Samples;Min_cycle;Max_cycle;Signal;HPM_P1;HPM_P2
2021/05/16 00:01:32;;;;;;;3.85;2.03;;;;;;;;;;4927038;28;20146;-88
2021/05/16 00:03:58;;;;;;;2.80;1.98;;;;;;;;;;4925059;28;20075;-89
2021/05/16 00:06:26;;;;;;;2.92;2.20;;;;;;;;;;4935981;28;20099;-88
2021/05/16 00:08:53;;;;;;;2.75;2.13;;;;;;;;;;4914476;28;20088;-88
2021/05/16 00:11:19;;;;;;;3.45;2.00;;;;;;;;;;4943108;28;20059;-89
2021/05/16 00:13:46;;;;;;;3.85;2.25;;;;;;;;;;4919554;28;20566;-87
2021/05/16 00:16:13;;;;;;;3.92;2.10;;;;;;;;;;4924118;28;20055;-87
2021/05/16 00:18:40;;;;;;;3.20;2.30;;;;;;;;;;4917239;28;20068;-87
2021/05/16 00:21:06;;;;;;;4.03;2.40;;;;;;;;;;4929839;28;20055;-87
2021/05/16 00:23:33;;;;;;;2.83;2.00;;;;;;;;;;4931888;28;20558;-88
2021/05/16 00:25:59;;;;;;;2.70;2.00;;;;;;;;;;4916142;29;20059;-87
2021/05/16 00:28:25;;;;;;;3.08;1.92;;;;;;;;;;4935427;28;20031;-88
2021/05/16 00:30:53;;;;;;;2.67;2.05;;;;;;;;;;4935603;28;20035;-87
2021/05/16 00:33:20;;;;;;;3.10;2.10;;;;;;;;;;4915947;28;20403;-88
2021/05/16 00:35:46;;;;;;;3.47;2.10;;;;;;;;;;4934585;28;20196;-88
2021/05/16 00:38:13;;;;;;;3.75;2.30;;;;;;;;;;4925414;28;20067;-88
2021/05/16 00:40:39;;;;;;;3.92;2.05;;;;;;;;;;4934663;28;20143;-88
2021/05/16 00:43:06;;;;;;;4.15;2.35;;;;;;;;;;4939925;28;20055;-87
2021/05/16 00:45:34;;;;;;;3.33;2.28;;;;;;;;;;4940244;28;20040;-88
2021/05/16 00:48:02;;;;;;;3.15;2.22;;;;;;;;;;4929167;28;20063;-87
2021/05/16 00:50:31;;;;;;;3.88;2.25;;;;;;;;;;4915661;28;20059;-87
2021/05/16 00:52:57;;;;;;;2.55;1.90;;;;;;;;;;4923457;28;20060;-87
2021/05/16 00:55:24;;;;;;;2.72;2.10;;;;;;;;;;4945409;28;20078;-88
2021/05/16 00:57:51;;;;;;;2.92;1.92;;;;;;;;;;4918658;28;20068;-88
2021/05/16 01:00:19;;;;;;;3.17;2.30;;;;;;;;;;4935107;28;20183;-88
2021/05/16 01:02:46;;;;;;;4.72;2.20;;;;;;;;;;4935697;28;20071;-88
2021/05/16 01:05:13;;;;;;;4.45;2.65;;;;;;;;;;4937466;28;20563;-88
2021/05/16 01:07:41;;;;;;;4.03;2.20;;;;;;;;;;4922268;28;20071;-88
2021/05/16 01:10:09;;;;;;;3.67;2.50;;;;;;;;;;4936206;28;20044;-87
2021/05/16 01:12:46;;;;;;;3.30;2.40;;;;;;;;;;4917596;28;20500;-88
2021/05/16 01:15:16;;;;;;;2.78;2.20;;;;;;;;;;4924690;28;20130;-88
2021/05/16 01:17:42;;;;;;;3.67;2.50;;;;;;;;;;4924558;28;20468;-87
2021/05/16 01:20:10;;;;;;;3.70;2.58;;;;;;;;;;4916338;28;20111;-89
2021/05/16 01:22:37;;;;;;;3.97;2.70;;;;;;;;;;4925601;28;20036;-89
2021/05/16 01:25:03;;;;;;;3.88;2.30;;;;;;;;;;4925018;28;20118;-88
2021/05/16 01:27:30;;;;;;;2.95;2.17;;;;;;;;;;4918242;28;20196;-87
2021/05/16 01:29:56;;;;;;;4.00;2.65;;;;;;;;;;4923802;28;20131;-88
2021/05/16 01:32:23;;;;;;;3.60;2.45;;;;;;;;;;4936879;28;20070;-87
2021/05/16 01:34:50;;;;;;;5.18;2.40;;;;;;;;;;4921717;28;20111;-88
2021/05/16 01:37:17;;;;;;;3.85;2.72;;;;;;;;;;4918496;29;20583;-88
2021/05/16 01:39:47;;;;;;;3.72;2.40;;;;;;;;;;4941571;28;20039;-87
2021/05/16 01:42:13;;;;;;;3.75;2.60;;;;;;;;;;4922432;28;20059;-87
2021/05/16 01:44:40;;;;;;;4.00;2.80;;;;;;;;;;4935295;28;20068;-87
2021/05/16 01:47:06;;;;;;;3.42;2.58;;;;;;;;;;4923008;28;20044;-87
2021/05/16 01:49:41;;;;;;;4.15;2.72;;;;;;;;;;4933458;28;20220;-88
2021/05/16 01:52:08;;;;;;;3.83;2.60;;;;;;;;;;4938702;28;20055;-87
2021/05/16 01:54:34;;;;;;;3.30;2.40;;;;;;;;;;4932569;28;20071;-87
2021/05/16 01:57:04;;;;;;;3.50;2.47;;;;;;;;;;4919263;28;20580;-87
2021/05/16 01:59:31;;;;;;;3.88;2.80;;;;;;;;;;4929823;28;20595;-87
2021/05/16 02:01:59;;;;;;;3.88;2.70;;;;;;;;;;4945528;28;20130;-88
2021/05/16 02:04:27;;;;;;;4.70;2.58;;;;;;;;;;4928665;28;20039;-88
2021/05/16 02:06:58;;;;;;;4.72;3.03;;;;;;;;;;4916369;28;20066;-88
2021/05/16 02:09:25;;;;;;;4.95;3.15;;;;;;;;;;4921064;28;20118;-88
2021/05/16 02:11:52;;;;;;;4.72;2.90;;;;;;;;;;4902522;28;20658;-89
2021/05/16 02:14:31;;;;;;;3.78;2.78;;;;;;;;;;4946363;28;20048;-88
2021/05/16 02:16:59;;;;;;;4.38;2.70;;;;;;;;;;4939224;28;20052;-88
2021/05/16 02:19:26;;;;;;;3.63;2.83;;;;;;;;;;4922095;28;20044;-88
2021/05/16 02:21:53;;;;;;;3.92;2.65;;;;;;;;;;4905916;28;20141;-88
2021/05/16 02:24:20;;;;;;;4.00;3.00;;;;;;;;;;4935437;28;20100;-87
2021/05/16 02:26:47;;;;;;;4.47;3.08;;;;;;;;;;4921493;28;21678;-88
2021/05/16 02:29:14;;;;;;;3.88;2.85;;;;;;;;;;4925148;28;20587;-88
2021/05/16 02:31:41;;;;;;;3.83;2.60;;;;;;;;;;4918187;28;20044;-88
2021/05/16 02:34:08;;;;;;;3.92;2.80;;;;;;;;;;4940500;28;20063;-88
2021/05/16 02:36:35;;;;;;;4.65;2.60;;;;;;;;;;4936251;28;20492;-88
2021/05/16 02:39:02;;;;;;;4.20;2.63;;;;;;;;;;4933309;28;20111;-87
2021/05/16 02:41:29;;;;;;;3.60;2.60;;;;;;;;;;4935070;28;20091;-87
2021/05/16 02:43:55;;;;;;;4.35;2.90;;;;;;;;;;4909885;28;20035;-88
2021/05/16 02:46:22;;;;;;;3.78;3.05;;;;;;;;;;4927234;28;20519;-89
2021/05/16 02:48:48;;;;;;;4.22;2.45;;;;;;;;;;4914535;28;20064;-88
2021/05/16 02:51:15;;;;;;;4.13;3.17;;;;;;;;;;4926328;28;20071;-88
2021/05/16 02:53:41;;;;;;;4.35;2.80;;;;;;;;;;4922777;28;20056;-87
2021/05/16 02:56:08;;;;;;;3.83;2.63;;;;;;;;;;4941353;28;20067;-88
2021/05/16 02:58:34;;;;;;;4.07;3.00;;;;;;;;;;4925034;28;20400;-87
2021/05/16 03:01:01;;;;;;;4.78;3.00;;;;;;;;;;4923094;28;20107;-88
2021/05/16 03:03:27;;;;;;;4.20;3.28;;;;;;;;;;4918007;28;20072;-87
2021/05/16 03:05:53;;;;;;;4.80;2.55;;;;;;;;;;4949067;28;20128;-88
2021/05/16 03:08:20;;;;;;;4.88;2.95;;;;;;;;;;4906745;29;20040;-89
2021/05/16 03:10:46;;;;;;;3.75;2.70;;;;;;;;;;4948884;28;20448;-89
2021/05/16 03:13:13;;;;;;;3.63;2.70;;;;;;;;;;4938595;28;20095;-89
2021/05/16 03:15:39;;;;;;;4.60;3.10;;;;;;;;;;4932279;28;20094;-87
2021/05/16 03:18:06;;;;;;;3.67;2.90;;;;;;;;;;4932483;28;20058;-87
2021/05/16 03:20:32;;;;;;;4.75;3.00;;;;;;;;;;4924779;28;20098;-86
2021/05/16 03:22:58;;;;;;;3.30;2.53;;;;;;;;;;4920333;29;20059;-88
2021/05/16 03:25:25;;;;;;;4.18;2.67;;;;;;;;;;4945097;28;20064;-88
2021/05/16 03:27:51;;;;;;;4.65;3.05;;;;;;;;;;4921511;28;20059;-89
2021/05/16 03:30:18;;;;;;;4.85;3.00;;;;;;;;;;4924199;29;20044;-89
2021/05/16 03:32:45;;;;;;;4.07;2.97;;;;;;;;;;4947559;28;20035;-89
2021/05/16 03:35:12;;;;;;;3.83;2.72;;;;;;;;;;4932092;28;20066;-88
2021/05/16 03:37:43;;;;;;;3.80;2.70;;;;;;;;;;4934136;28;20067;-89
2021/05/16 03:40:14;;;;;;;3.47;2.63;;;;;;;;;;4926840;28;20036;-90
2021/05/16 03:42:41;;;;;;;3.50;2.65;;;;;;;;;;4932382;28;20066;-89
2021/05/16 03:45:09;;;;;;;3.58;2.80;;;;;;;;;;4923253;29;20469;-89
2021/05/16 03:47:36;;;;;;;3.85;2.60;;;;;;;;;;4924674;28;20071;-87
2021/05/16 03:50:03;;;;;;;4.25;3.28;;;;;;;;;;4926054;28;20575;-89
2021/05/16 03:52:30;;;;;;;4.20;2.80;;;;;;;;;;4929760;28;20059;-87
2021/05/16 03:54:57;;;;;;;4.78;3.13;;;;;;;;;;4926787;28;20491;-88
2021/05/16 03:57:24;;;;;;;4.38;3.00;;;;;;;;;;4927486;28;20118;-88
2021/05/16 03:59:51;;;;;;;3.30;2.60;;;;;;;;;;4937451;28;20042;-88
2021/05/16 04:02:17;;;;;;;4.75;2.88;;;;;;;;;;4924573;28;20159;-88
2021/05/16 04:04:44;;;;;;;5.18;2.72;;;;;;;;;;4915241;28;20046;-88
2021/05/16 04:07:12;;;;;;;3.65;2.78;;;;;;;;;;4920461;28;20068;-88
2021/05/16 04:09:38;;;;;;;4.57;2.60;;;;;;;;;;4936993;28;20056;-88
2021/05/16 04:12:06;;;;;;;3.67;2.70;;;;;;;;;;4914098;29;20075;-89
2021/05/16 04:14:33;;;;;;;4.70;3.00;;;;;;;;;;4928574;28;20039;-89
2021/05/16 04:16:59;;;;;;;4.30;2.88;;;;;;;;;;4933585;28;20059;-88
2021/05/16 04:19:26;;;;;;;4.03;2.75;;;;;;;;;;4942507;28;20065;-87
2021/05/16 04:21:52;;;;;;;3.63;2.50;;;;;;;;;;4918200;28;20123;-88
2021/05/16 04:24:19;;;;;;;3.50;2.80;;;;;;;;;;4928488;28;20106;-88
2021/05/16 04:26:45;;;;;;;3.42;2.70;;;;;;;;;;4928797;28;20882;-88
2021/05/16 04:29:12;;;;;;;3.72;2.70;;;;;;;;;;4929451;28;20071;-87
2021/05/16 04:31:39;;;;;;;3.72;2.78;;;;;;;;;;4924333;28;20043;-89
2021/05/16 04:34:06;;;;;;;3.42;2.60;;;;;;;;;;4927049;28;20449;-88
2021/05/16 04:36:32;;;;;;;4.30;2.42;;;;;;;;;;4946534;28;20067;-88
2021/05/16 04:38:59;;;;;;;4.20;3.00;;;;;;;;;;4914181;29;20491;-88
2021/05/16 04:41:25;;;;;;;4.13;2.75;;;;;;;;;;4948246;28;20063;-88
2021/05/16 04:43:52;;;;;;;3.13;2.47;;;;;;;;;;4927620;28;20677;-88
2021/05/16 04:46:18;;;;;;;3.58;2.80;;;;;;;;;;4930179;28;20570;-89
2021/05/16 04:48:45;;;;;;;3.90;2.70;;;;;;;;;;4942870;28;20073;-89
2021/05/16 04:51:11;;;;;;;3.50;2.65;;;;;;;;;;4925872;28;20095;-89
2021/05/16 04:53:38;;;;;;;3.40;2.63;;;;;;;;;;4921381;28;20779;-89
2021/05/16 04:56:04;;;;;;;3.63;2.85;;;;;;;;;;4937065;28;20099;-88
2021/05/16 04:58:31;;;;;;;4.20;2.72;;;;;;;;;;4918724;28;20062;-88
2021/05/16 05:00:58;;;;;;;3.40;2.47;;;;;;;;;;4931024;28;20051;-88
2021/05/16 05:03:25;;;;;;;3.53;2.50;;;;;;;;;;4932097;28;20575;-87
2021/05/16 05:05:52;;;;;;;3.00;2.33;;;;;;;;;;4914940;28;20511;-88
2021/05/16 05:08:18;;;;;;;3.92;2.65;;;;;;;;;;4922783;28;20464;-88
2021/05/16 05:10:45;;;;;;;3.58;2.80;;;;;;;;;;4931948;28;20082;-88
2021/05/16 05:13:11;;;;;;;3.85;2.75;;;;;;;;;;4923305;28;20052;-89
2021/05/16 05:15:38;;;;;;;3.58;2.03;;;;;;;;;;4921637;28;20112;-88
2021/05/16 05:18:04;;;;;;;3.90;2.80;;;;;;;;;;4926866;28;20059;-87
2021/05/16 05:20:31;;;;;;;3.13;2.28;;;;;;;;;;4943926;28;20071;-89
2021/05/16 05:22:57;;;;;;;3.63;2.60;;;;;;;;;;4927002;28;20088;-88
2021/05/16 05:25:24;;;;;;;3.72;2.78;;;;;;;;;;4923447;29;20069;-88
2021/05/16 05:27:50;;;;;;;4.00;2.50;;;;;;;;;;4939066;28;20138;-90
2021/05/16 05:30:17;;;;;;;3.13;2.67;;;;;;;;;;4940056;28;20059;-88
2021/05/16 05:32:44;;;;;;;4.22;2.45;;;;;;;;;;4931327;28;20127;-89
2021/05/16 05:35:10;;;;;;;3.97;2.70;;;;;;;;;;4933266;28;20143;-88
2021/05/16 05:37:37;;;;;;;3.90;2.60;;;;;;;;;;4935368;28;20110;-89
2021/05/16 05:40:04;;;;;;;2.90;2.25;;;;;;;;;;4928607;28;20113;-88
2021/05/16 05:42:30;;;;;;;3.72;2.83;;;;;;;;;;4936792;28;20106;-89
2021/05/16 05:44:57;;;;;;;3.20;2.55;;;;;;;;;;4922076;28;20063;-88
2021/05/16 05:47:23;;;;;;;3.90;2.60;;;;;;;;;;4921403;28;20055;-89
2021/05/16 05:49:50;;;;;;;3.50;2.40;;;;;;;;;;4920626;28;20047;-89
2021/05/16 05:52:16;;;;;;;2.97;2.38;;;;;;;;;;4929149;28;20186;-88
2021/05/16 05:54:43;;;;;;;3.75;2.60;;;;;;;;;;4915408;28;20047;-88
2021/05/16 05:57:09;;;;;;;3.53;2.30;;;;;;;;;;4933390;28;20064;-88
2021/05/16 05:59:36;;;;;;;3.58;2.40;;;;;;;;;;4921946;28;20674;-87
2021/05/16 06:02:03;;;;;;;3.05;2.30;;;;;;;;;;4940917;28;20044;-88
2021/05/16 06:04:30;;;;;;;4.35;2.20;;;;;;;;;;4940941;28;20122;-88
2021/05/16 06:06:56;;;;;;;3.40;2.50;;;;;;;;;;4919274;28;20048;-87
2021/05/16 06:09:23;;;;;;;4.43;2.70;;;;;;;;;;4930180;28;20114;-88
2021/05/16 06:11:50;;;;;;;3.50;2.17;;;;;;;;;;4927337;28;20060;-87
2021/05/16 06:14:16;;;;;;;2.90;2.38;;;;;;;;;;4934781;28;20083;-87
2021/05/16 06:16:43;;;;;;;4.32;2.70;;;;;;;;;;4923025;28;20048;-88
2021/05/16 06:19:09;;;;;;;3.63;2.70;;;;;;;;;;4934249;28;20199;-87
2021/05/16 06:21:36;;;;;;;3.20;2.35;;;;;;;;;;4923038;28;20028;-87
2021/05/16 06:26:29;;;;;;;2.83;2.22;;;;;;;;;;4920154;28;20055;-86
2021/05/16 06:28:56;;;;;;;2.83;2.30;;;;;;;;;;4938214;28;20059;-87
2021/05/16 06:31:23;;;;;;;3.60;2.33;;;;;;;;;;4910649;28;20468;-88
2021/05/16 06:33:50;;;;;;;3.10;2.30;;;;;;;;;;4911617;28;20048;-88
2021/05/16 06:36:17;;;;;;;2.63;2.03;;;;;;;;;;4941730;28;20056;-89
2021/05/16 06:38:43;;;;;;;3.42;2.35;;;;;;;;;;4933377;28;20059;-88
2021/05/16 06:41:10;;;;;;;2.95;2.25;;;;;;;;;;4929352;28;20072;-87
2021/05/16 06:43:36;;;;;;;3.50;2.28;;;;;;;;;;4948205;28;20091;-87
2021/05/16 06:46:03;;;;;;;2.70;2.33;;;;;;;;;;4944426;28;20082;-88
2021/05/16 06:48:29;;;;;;;2.85;2.25;;;;;;;;;;4919352;28;20091;-87
2021/05/16 06:50:56;;;;;;;3.33;2.20;;;;;;;;;;4935543;28;20055;-88
2021/05/16 06:53:22;;;;;;;3.13;2.22;;;;;;;;;;4953135;28;20119;-89
2021/05/16 06:55:49;;;;;;;3.45;2.45;;;;;;;;;;4930321;28;20059;-88
2021/05/16 06:58:15;;;;;;;3.50;2.60;;;;;;;;;;4930805;28;20488;-88
2021/05/16 07:00:42;;;;;;;4.95;2.40;;;;;;;;;;4921627;28;20075;-86
2021/05/16 07:03:08;;;;;;;3.45;2.15;;;;;;;;;;4927705;28;20584;-89
2021/05/16 07:05:35;;;;;;;2.85;2.20;;;;;;;;;;4926561;28;20040;-88
2021/05/16 07:08:01;;;;;;;3.42;2.20;;;;;;;;;;4921587;28;20509;-88
2021/05/16 07:10:28;;;;;;;3.00;2.40;;;;;;;;;;4930871;28;20035;-85
2021/05/16 07:12:54;;;;;;;2.83;2.05;;;;;;;;;;4924736;28;20496;-87
2021/05/16 07:15:21;;;;;;;3.25;2.13;;;;;;;;;;4928518;28;20067;-88
2021/05/16 07:17:48;;;;;;;2.70;2.17;;;;;;;;;;4944877;28;20267;-88
2021/05/16 07:20:15;;;;;;;3.33;2.40;;;;;;;;;;4942417;28;20516;-88
2021/05/16 07:22:42;;;;;;;2.55;2.00;;;;;;;;;;4929399;28;20040;-88
2021/05/16 07:25:08;;;;;;;3.83;2.10;;;;;;;;;;4924303;28;20060;-88
2021/05/16 07:27:35;;;;;;;3.08;2.00;;;;;;;;;;4923198;28;20081;-89
2021/05/16 07:30:01;;;;;;;2.47;2.05;;;;;;;;;;4944841;28;20103;-89
2021/05/16 07:32:28;;;;;;;3.10;2.10;;;;;;;;;;4943039;28;20057;-85
2021/05/16 07:34:54;;;;;;;2.47;1.98;;;;;;;;;;4934567;28;20162;-87
2021/05/16 07:37:21;;;;;;;2.63;2.17;;;;;;;;;;4940171;28;20119;-88
2021/05/16 07:39:47;;;;;;;2.97;2.17;;;;;;;;;;4941371;28;20139;-89
2021/05/16 07:42:14;;;;;;;3.50;2.30;;;;;;;;;;4929454;28;20071;-89
2021/05/16 07:44:40;;;;;;;3.58;2.13;;;;;;;;;;4946272;28;20082;-89
2021/05/16 07:47:09;;;;;;;3.25;2.15;;;;;;;;;;4941021;28;20060;-89
2021/05/16 07:49:35;;;;;;;3.08;2.13;;;;;;;;;;4932571;28;20116;-89
2021/05/16 07:52:02;;;;;;;2.85;1.90;;;;;;;;;;4942487;28;20043;-89
2021/05/16 07:54:29;;;;;;;2.78;2.00;;;;;;;;;;4949534;28;20063;-88
2021/05/16 07:56:57;;;;;;;2.72;2.13;;;;;;;;;;4944870;28;20518;-89
2021/05/16 07:59:24;;;;;;;3.42;1.95;;;;;;;;;;4937310;28;20449;-89
2021/05/16 08:01:50;;;;;;;2.40;1.83;;;;;;;;;;4921917;28;20082;-87
2021/05/16 08:04:17;;;;;;;3.17;2.00;;;;;;;;;;4928402;28;20052;-89
2021/05/16 08:06:43;;;;;;;2.88;1.92;;;;;;;;;;4933622;28;20109;-88
2021/05/16 08:09:10;;;;;;;3.58;2.25;;;;;;;;;;4928252;28;20459;-88
2021/05/16 08:11:36;;;;;;;2.47;1.95;;;;;;;;;;4936537;28;20122;-88
2021/05/16 08:14:03;;;;;;;2.40;1.80;;;;;;;;;;4938410;28;20110;-87
2021/05/16 08:16:31;;;;;;;3.67;2.20;;;;;;;;;;4926840;28;20063;-87
2021/05/16 08:19:00;;;;;;;2.97;1.98;;;;;;;;;;4941024;28;20059;-87
2021/05/16 08:21:27;;;;;;;2.67;1.95;;;;;;;;;;4927187;28;20027;-88
2021/05/16 08:23:53;;;;;;;2.45;1.88;;;;;;;;;;4908814;28;22491;-88
2021/05/16 08:26:20;;;;;;;2.53;1.98;;;;;;;;;;4917705;29;20055;-89
2021/05/16 08:28:46;;;;;;;2.20;1.80;;;;;;;;;;4947993;28;20680;-89
2021/05/16 08:31:13;;;;;;;2.63;1.90;;;;;;;;;;4933247;28;20118;-89
2021/05/16 08:33:39;;;;;;;2.95;2.05;;;;;;;;;;4939942;28;20063;-88
2021/05/16 08:36:06;;;;;;;2.28;1.73;;;;;;;;;;4902684;28;20062;-89
2021/05/16 08:38:32;;;;;;;2.85;2.20;;;;;;;;;;4913784;28;20060;-89
2021/05/16 08:40:59;;;;;;;2.67;1.90;;;;;;;;;;4932279;28;20048;-89
2021/05/16 08:43:25;;;;;;;2.38;1.85;;;;;;;;;;4925547;28;20118;-88
2021/05/16 08:45:52;;;;;;;2.42;1.73;;;;;;;;;;4940096;28;20044;-88
2021/05/16 08:48:18;;;;;;;2.78;2.10;;;;;;;;;;4923011;28;20095;-88
2021/05/16 08:50:46;;;;;;;2.95;1.90;;;;;;;;;;4919085;28;20520;-88
2021/05/16 08:53:12;;;;;;;2.33;1.65;;;;;;;;;;4917829;29;20071;-88
2021/05/16 08:55:39;;;;;;;2.95;1.80;;;;;;;;;;4938874;28;20071;-89
2021/05/16 08:58:07;;;;;;;3.10;1.70;;;;;;;;;;4918989;28;20779;-89
2021/05/16 09:00:42;;;;;;;2.25;1.73;;;;;;;;;;4922242;28;20056;-87
2021/05/16 09:03:09;;;;;;;2.80;1.90;;;;;;;;;;4921667;28;20051;-89
2021/05/16 09:05:37;;;;;;;2.83;2.00;;;;;;;;;;4928185;28;20122;-88
2021/05/16 09:08:16;;;;;;;2.80;1.80;;;;;;;;;;4948529;28;20040;-89
2021/05/16 09:10:43;;;;;;;2.83;1.90;;;;;;;;;;4931738;28;20114;-89
2021/05/16 09:13:23;;;;;;;2.78;2.13;;;;;;;;;;4927751;28;20519;-89
2021/05/16 09:16:09;;;;;;;2.50;2.00;;;;;;;;;;4918834;28;20443;-89
2021/05/16 09:18:35;;;;;;;2.80;1.65;;;;;;;;;;4939660;28;20063;-89
2021/05/16 09:21:34;;;;;;;2.75;1.95;;;;;;;;;;4938877;28;20035;-89
2021/05/16 09:24:01;;;;;;;2.42;1.80;;;;;;;;;;4915243;28;20095;-89
2021/05/16 09:26:28;;;;;;;2.63;1.88;;;;;;;;;;4918312;29;20043;-89
2021/05/16 09:28:55;;;;;;;2.83;2.00;;;;;;;;;;4906784;29;20617;-91
2021/05/16 09:31:34;;;;;;;2.97;1.70;;;;;;;;;;4911072;28;20067;-90
2021/05/16 09:34:04;;;;;;;3.83;2.03;;;;;;;;;;4926628;28;20570;-89
2021/05/16 09:36:34;;;;;;;2.72;1.90;;;;;;;;;;4946838;28;20646;-89
2021/05/16 09:39:13;;;;;;;2.67;1.85;;;;;;;;;;4935250;28;20107;-89
2021/05/16 09:41:54;;;;;;;2.95;1.90;;;;;;;;;;4925681;28;20072;-90
2021/05/16 09:44:36;;;;;;;2.80;1.73;;;;;;;;;;4925254;28;20060;-89
2021/05/16 09:47:19;;;;;;;2.20;1.70;;;;;;;;;;4923552;28;21102;-89
2021/05/16 09:49:53;;;;;;;2.05;1.60;;;;;;;;;;4939937;28;20933;-89
2021/05/16 09:52:20;;;;;;;2.50;1.80;;;;;;;;;;4921091;28;20067;-89
2021/05/16 09:55:02;;;;;;;2.92;1.60;;;;;;;;;;4911300;28;20069;-89
2021/05/16 09:57:28;;;;;;;;;;;;;;;;;;4919094;28;20104;-89
2021/05/16 09:59:55;;;;;;;2.58;1.95;;;;;;;;;;4908638;29;19910;-89
2021/05/16 10:02:26;;;;;;;2.30;1.65;;;;;;;;;;4919662;28;20044;-90
2021/05/16 10:04:53;;;;;;;2.17;1.48;;;;;;;;;;4922041;28;20040;-90
2021/05/16 10:07:23;;;;;;;2.22;1.60;;;;;;;;;;4931889;28;20139;-90
2021/05/16 10:09:51;;;;;;;2.95;1.50;;;;;;;;;;4929894;28;20094;-90
2021/05/16 10:12:18;;;;;;;2.85;1.50;;;;;;;;;;4915089;29;20077;-90
2021/05/16 10:14:47;;;;;;;2.45;1.75;;;;;;;;;;4910858;28;20118;-90
2021/05/16 10:17:14;;;;;;;2.15;1.63;;;;;;;;;;4927168;28;20110;-90
2021/05/16 10:19:42;;;;;;;2.58;1.80;;;;;;;;;;4929612;28;20036;-89
2021/05/16 10:22:13;;;;;;;2.28;1.77;;;;;;;;;;4948866;28;20036;-90
2021/05/16 10:24:40;;;;;;;2.08;1.45;;;;;;;;;;4917355;28;20048;-90
2021/05/16 10:27:15;;;;;;;2.38;1.70;;;;;;;;;;4932543;28;20568;-91
2021/05/16 10:29:46;;;;;;;2.53;1.90;;;;;;;;;;4933957;28;20716;-90
2021/05/16 10:32:23;;;;;;;2.22;1.60;;;;;;;;;;4934949;28;20046;-90
2021/05/16 10:34:59;;;;;;;1.77;1.33;;;;;;;;;;4936709;28;20554;-90
2021/05/16 10:37:41;;;;;;;1.55;1.30;;;;;;;;;;4939108;28;20036;-90
2021/05/16 10:40:22;;;;;;;2.58;1.63;;;;;;;;;;4935684;28;20291;-90
2021/05/16 10:42:50;;;;;;;2.58;1.50;;;;;;;;;;4924243;28;20048;-90
2021/05/16 10:45:34;;;;;;;2.15;1.45;;;;;;;;;;4916703;29;20040;-91
2021/05/16 10:48:12;;;;;;;2.13;1.65;;;;;;;;;;4928572;28;20047;-91
2021/05/16 10:50:38;;;;;;;2.30;1.40;;;;;;;;;;4929636;28;20083;-91
2021/05/16 10:53:12;;;;;;;2.50;1.60;;;;;;;;;;4926754;28;20489;-90
2021/05/16 10:55:43;;;;;;;1.88;1.58;;;;;;;;;;4924896;28;20042;-91
2021/05/16 10:58:33;;;;;;;2.43;1.67;;;;;;;;;;4941386;28;20055;-90
2021/05/16 11:01:04;;;;;;;3.22;1.52;;;;;;;;;;4933192;28;20290;-90
2021/05/16 11:03:43;;;;;;;1.95;1.50;;;;;;;;;;4935911;28;20111;-90
2021/05/16 11:06:10;;;;;;;2.90;2.03;;;;;;;;;;4934979;28;20059;-90
2021/05/16 11:08:37;;;;;;;2.10;1.38;;;;;;;;;;4922077;28;20044;-90
2021/05/16 11:11:27;;;;;;;2.65;1.40;;;;;;;;;;4918519;29;20122;-90
2021/05/16 11:13:54;;;;;;;2.10;1.50;;;;;;;;;;4884585;28;20028;-89
2021/05/16 11:16:20;;;;;;;1.48;1.25;;;;;;;;;;4930506;28;20068;-88
2021/05/16 11:18:46;;;;;;;1.98;1.40;;;;;;;;;;4930915;28;20067;-88
2021/05/16 11:21:14;;;;;;;2.40;1.30;;;;;;;;;;4923648;28;20152;-89
2021/05/16 11:23:44;;;;;;;1.92;1.50;;;;;;;;;;4917321;28;20461;-89
2021/05/16 11:26:15;;;;;;;3.47;1.40;;;;;;;;;;4933546;28;20064;-89
2021/05/16 11:28:50;;;;;;;2.30;1.60;;;;;;;;;;4929361;28;20142;-88
2021/05/16 11:31:19;;;;;;;1.85;1.45;;;;;;;;;;4945976;28;20032;-89
2021/05/16 11:33:47;;;;;;;2.65;1.20;;;;;;;;;;4922968;28;20091;-89
2021/05/16 11:36:18;;;;;;;2.00;1.17;;;;;;;;;;4924745;28;20047;-90
2021/05/16 11:38:46;;;;;;;2.25;1.40;;;;;;;;;;4923917;28;20531;-88
2021/05/16 11:41:27;;;;;;;1.88;1.20;;;;;;;;;;4934581;28;20550;-90
2021/05/16 11:43:54;;;;;;;;;;;;;;;;;;4935140;28;20111;-88
2021/05/16 11:46:24;;;;;;;2.00;1.20;;;;;;;;;;4905544;29;20434;-88
2021/05/16 11:48:51;;;;;;;1.80;1.33;;;;;;;;;;4935925;28;20106;-89
2021/05/16 11:51:17;;;;;;;1.80;1.30;;;;;;;;;;4930282;28;20523;-89
2021/05/16 11:53:45;;;;;;;1.80;1.20;;;;;;;;;;4921754;28;20520;-90
2021/05/16 11:56:15;;;;;;;1.80;1.30;;;;;;;;;;4946677;28;20039;-89
2021/05/16 11:58:48;;;;;;;2.05;1.30;;;;;;;;;;4923614;28;20808;-89
2021/05/16 12:01:15;;;;;;;1.77;1.30;;;;;;;;;;4937221;28;20044;-88
2021/05/16 12:04:12;;;;;;;2.72;1.25;;;;;;;;;;4905622;28;20166;-89
2021/05/16 12:06:42;;;;;;;2.25;1.40;;;;;;;;;;4896677;28;20040;-89
2021/05/16 12:09:17;;;;;;;2.23;1.33;;;;;;;;;;4922847;28;20040;-90
2021/05/16 12:11:47;;;;;;;2.42;1.40;;;;;;;;;;4906155;28;20467;-89
2021/05/16 12:14:19;;;;;;;2.13;1.27;;;;;;;;;;4922004;29;20051;-89
2021/05/16 12:16:56;;;;;;;2.13;1.23;;;;;;;;;;4925634;28;20094;-89
2021/05/16 12:19:24;;;;;;;1.83;1.30;;;;;;;;;;4944095;28;20293;-89
2021/05/16 12:21:54;;;;;;;2.13;1.37;;;;;;;;;;4924661;28;20071;-90
2021/05/16 12:24:24;;;;;;;2.65;1.50;;;;;;;;;;4934844;28;20032;-88
2021/05/16 12:26:53;;;;;;;1.63;1.25;;;;;;;;;;4940472;28;20487;-88
2021/05/16 12:29:23;;;;;;;2.75;1.40;;;;;;;;;;4940644;28;20075;-89
2021/05/16 12:31:50;;;;;;;3.30;1.50;;;;;;;;;;4928819;28;20036;-89
2021/05/16 12:37:40;;;;;;;2.50;1.40;;;;;;;;;;4898682;28;20105;-88
2021/05/16 12:40:08;;;;;;;3.10;1.42;;;;;;;;;;4927655;28;20461;-89
2021/05/16 12:42:37;;;;;;;2.55;1.35;;;;;;;;;;4938569;28;20095;-89
2021/05/16 12:45:19;;;;;;;1.80;1.27;;;;;;;;;;4941995;28;20720;-88
2021/05/16 12:48:06;;;;;;;2.10;1.35;;;;;;;;;;4937484;28;20040;-91
2021/05/16 12:50:34;;;;;;;2.95;1.27;;;;;;;;;;4917038;28;20041;-90
2021/05/16 12:53:21;;;;;;;1.98;1.35;;;;;;;;;;4929548;28;20108;-87
2021/05/16 12:55:49;;;;;;;1.67;1.13;;;;;;;;;;4919454;28;20067;-88
2021/05/16 12:58:19;;;;;;;2.75;1.10;;;;;;;;;;4924072;28;20496;-88
2021/05/16 13:00:55;;;;;;;2.00;1.05;;;;;;;;;;4912916;28;20055;-88
2021/05/16 13:03:28;;;;;;;1.98;1.15;;;;;;;;;;4935014;28;20028;-88
2021/05/16 13:05:55;;;;;;;1.20;1.05;;;;;;;;;;4917174;28;20028;-88
2021/05/16 13:08:32;;;;;;;1.58;1.20;;;;;;;;;;4917909;28;20103;-89
2021/05/16 13:10:58;;;;;;;2.03;1.20;;;;;;;;;;4927794;28;20071;-88
2021/05/16 13:13:34;;;;;;;2.05;1.10;;;;;;;;;;4914759;29;20028;-89
2021/05/16 13:16:03;;;;;;;1.55;1.10;;;;;;;;;;4926871;28;20028;-89
2021/05/16 13:18:51;;;;;;;1.70;1.02;;;;;;;;;;4947837;28;20633;-89
2021/05/16 13:21:27;;;;;;;1.80;1.20;;;;;;;;;;4939295;28;21314;-87
2021/05/16 13:23:56;;;;;;;1.58;1.00;;;;;;;;;;4932537;28;20587;-89
2021/05/16 13:26:39;;;;;;;2.28;1.10;;;;;;;;;;4928145;28;20087;-88
2021/05/16 13:29:09;;;;;;;1.67;1.10;;;;;;;;;;4933536;28;20115;-88
2021/05/16 13:31:36;;;;;;;1.55;1.02;;;;;;;;;;4906085;28;20059;-88
2021/05/16 13:34:03;;;;;;;1.73;1.10;;;;;;;;;;4938991;28;20115;-89
2021/05/16 13:36:30;;;;;;;1.48;1.10;;;;;;;;;;4938843;28;20032;-87
2021/05/16 13:38:57;;;;;;;2.25;1.30;;;;;;;;;;4926890;28;20036;-88
2021/05/16 13:41:24;;;;;;;1.75;1.10;;;;;;;;;;4946988;28;20059;-89
2021/05/16 13:43:50;;;;;;;2.05;1.05;;;;;;;;;;4936964;28;20551;-88
2021/05/16 13:46:17;;;;;;;1.92;1.20;;;;;;;;;;4937583;28;20082;-88
2021/05/16 13:48:43;;;;;;;1.60;1.00;;;;;;;;;;4923932;28;20114;-89
2021/05/16 13:51:10;;;;;;;1.40;0.95;;;;;;;;;;4923993;28;20103;-88
2021/05/16 13:53:36;;;;;;;2.00;1.00;;;;;;;;;;4933662;28;20075;-89
2021/05/16 13:56:03;;;;;;;2.70;1.10;;;;;;;;;;4911537;29;20117;-88
2021/05/16 13:58:29;;;;;;;2.92;1.10;;;;;;;;;;4936024;28;20079;-88
2021/05/16 14:00:55;;;;;;;1.95;1.00;;;;;;;;;;4914088;28;21910;-88
2021/05/16 14:03:22;;;;;;;1.98;1.00;;;;;;;;;;4921929;28;20436;-89
2021/05/16 14:05:51;;;;;;;1.40;1.00;;;;;;;;;;4923218;28;20036;-88
2021/05/16 14:08:20;;;;;;;2.42;1.10;;;;;;;;;;4897887;29;20068;-88
2021/05/16 14:10:46;;;;;;;1.95;1.20;;;;;;;;;;4925339;28;20064;-88
2021/05/16 14:13:13;;;;;;;2.10;0.90;;;;;;;;;;4922384;28;20032;-88
2021/05/16 14:15:39;;;;;;;2.15;1.02;;;;;;;;;;4934531;28;20048;-89
2021/05/16 14:18:06;;;;;;;1.75;1.10;;;;;;;;;;4931328;28;20078;-88
2021/05/16 14:20:32;;;;;;;1.65;0.90;;;;;;;;;;4926440;28;20062;-89
2021/05/16 14:22:59;;;;;;;1.75;1.00;;;;;;;;;;4926871;28;20123;-88
2021/05/16 14:25:25;;;;;;;1.83;0.88;;;;;;;;;;4925690;28;20511;-89
2021/05/16 14:27:52;;;;;;;2.53;1.10;;;;;;;;;;4915903;28;20103;-89
2021/05/16 14:30:19;;;;;;;1.50;1.00;;;;;;;;;;4914385;28;20464;-89
2021/05/16 14:32:46;;;;;;;2.47;1.13;;;;;;;;;;4945623;28;20486;-88
2021/05/16 14:35:13;;;;;;;2.33;1.00;;;;;;;;;;4934671;28;20067;-89
2021/05/16 14:37:39;;;;;;;1.70;1.00;;;;;;;;;;4927738;28;20066;-88
2021/05/16 14:40:06;;;;;;;1.50;1.05;;;;;;;;;;4915078;28;20062;-88
2021/05/16 14:42:32;;;;;;;1.92;1.05;;;;;;;;;;4912273;28;20161;-88
2021/05/16 14:44:59;;;;;;;2.08;1.10;;;;;;;;;;4903264;29;20606;-88
2021/05/16 14:47:25;;;;;;;1.75;1.00;;;;;;;;;;4924879;28;20072;-88
2021/05/16 14:49:52;;;;;;;2.40;1.10;;;;;;;;;;4915645;28;20096;-89
2021/05/16 14:52:18;;;;;;;1.17;0.90;;;;;;;;;;4926455;29;20062;-89
2021/05/16 14:54:45;;;;;;;2.08;1.20;;;;;;;;;;4933772;28;20048;-89
2021/05/16 14:57:12;;;;;;;1.42;1.00;;;;;;;;;;4899587;29;20064;-88